Time;durP1;ratioP1;P1;durP2;ratioP2;P2;SDS_P1;SDS_P2;PMS_P1;PMS_P2;Temp;Humidity;BMP_temperature;BMP_pressure;BME280_temperature;BME280_humidity;BME280_pressure;Samples;Min_cycle;Max_cycle;Signal;HPM_P1;HPM_P2
2022/06/28 00:01:18;;;;;;;;;;;;;;;15.29;51.43;95884.13;6371304;27;19923;-68
2022/06/28 00:04:21;;;;;;;;;;;;;;;15.58;50.98;95873.25;6370699;27;19930;-67
2022/06/28 00:07:23;;;;;;;;;;;;;;;15.80;50.78;95862.16;6371345;27;19924;-66
2022/06/28 00:10:26;;;;;;;;;;;;;;;15.91;50.83;95859.25;6370598;28;19924;-67
2022/06/28 00:13:27;;;;;;;;;;;;;;;15.83;51.01;95850.41;6370291;28;20427;-68
2022/06/28 00:16:29;;;;;;;;;;;;;;;15.79;51.24;95859.66;6370416;28;20411;-67
2022/06/28 00:19:33;;;;;;;;;;;;;;;15.80;51.39;95861.31;6371382;28;20015;-67
2022/06/28 00:22:37;;;;;;;;;;;;;;;15.77;51.58;95865.13;6371195;28;19927;-69
2022/06/28 00:25:40;;;;;;;;;;;;;;;15.75;51.72;95864.44;6371050;28;19986;-67
2022/06/28 00:28:42;;;;;;;;;;;;;;;15.68;51.77;95847.47;6369997;28;19923;-69
2022/06/28 00:31:43;;;;;;;;;;;;;;;15.76;52.05;95854.66;6370005;28;19923;-68
2022/06/28 00:34:47;;;;;;;;;;;;;;;15.65;52.07;95845.97;6370306;28;19924;-69
2022/06/28 00:37:50;;;;;;;;;;;;;;;15.68;52.45;95845.69;6370877;28;19923;-67
2022/06/28 00:40:52;;;;;;;;;;;;;;;15.67;52.78;95836.00;6371051;28;20269;-68
2022/06/28 00:44:01;;;;;;;;;;;;;;;15.64;52.89;95838.97;6370972;28;19924;-68
2022/06/28 00:47:02;;;;;;;;;;;;;;;15.65;53.52;95840.66;6370099;28;20273;-67
2022/06/28 00:50:08;;;;;;;;;;;;;;;15.70;53.80;95841.03;6373465;27;20389;-67
2022/06/28 00:53:16;;;;;;;;;;;;;;;15.93;53.38;95845.78;6375686;27;20063;-67
2022/06/28 00:56:22;;;;;;;;;;;;;;;15.95;53.81;95854.44;6375555;27;19926;-67
2022/06/28 00:59:28;;;;;;;;;;;;;;;16.11;53.63;95854.53;6375529;27;19923;-67
2022/06/28 01:02:33;;;;;;;;;;;;;;;16.23;53.40;95840.97;6375498;27;19923;-68
2022/06/28 01:05:41;;;;;;;;;;;;;;;16.32;53.44;95850.63;6374851;27;20394;-67
2022/06/28 01:08:45;;;;;;;;;;;;;;;16.45;53.67;95845.72;6374621;27;20400;-67
2022/06/28 01:11:51;;;;;;;;;;;;;;;16.61;54.17;95839.59;6375308;27;19931;-67
2022/06/28 01:14:52;;;;;;;;;;;;;;;16.63;54.27;95831.47;6374561;27;19930;-68
2022/06/28 01:17:53;;;;;;;;;;;;;;;16.83;54.57;95811.63;6374396;27;19931;-67
2022/06/28 01:20:54;;;;;;;;;;;;;;;16.80;54.58;95822.59;6374562;27;20340;-67
2022/06/28 01:23:58;;;;;;;;;;;;;;;16.82;54.87;95825.91;6375060;27;19923;-67
2022/06/28 01:27:01;;;;;;;;;;;;;;;16.98;55.06;95815.28;6375039;27;19923;-67
2022/06/28 01:30:06;;;;;;;;;;;;;;;16.94;55.24;95810.47;6374827;27;19924;-66
2022/06/28 01:33:10;;;;;;;;;;;;;;;16.96;55.12;95816.47;6374834;27;19930;-66
2022/06/28 01:36:11;;;;;;;;;;;;;;;16.97;55.17;95803.00;6373732;27;19924;-67
2022/06/28 01:39:12;;;;;;;;;;;;;;;16.95;55.26;95820.94;6373626;27;19976;-67
2022/06/28 01:42:18;;;;;;;;;;;;;;;16.83;56.22;95822.25;6374486;27;19927;-68
2022/06/28 01:45:22;;;;;;;;;;;;;;;16.74;56.23;95839.16;6374080;27;19961;-67
2022/06/28 01:48:26;;;;;;;;;;;;;;;16.63;56.93;95845.59;6374376;27;19924;-67
2022/06/28 01:51:32;;;;;;;;;;;;;;;16.83;57.16;95833.69;6374496;27;20332;-68
2022/06/28 01:54:36;;;;;;;;;;;;;;;16.71;57.72;95844.78;6373894;27;20423;-67
2022/06/28 01:57:38;;;;;;;;;;;;;;;16.72;57.94;95839.28;6373313;27;19923;-67
2022/06/28 02:00:39;;;;;;;;;;;;;;;16.58;57.76;95840.75;6372814;27;19930;-67
2022/06/28 02:03:43;;;;;;;;;;;;;;;16.46;58.01;95836.75;6373853;27;19923;-68
2022/06/28 02:06:46;;;;;;;;;;;;;;;16.44;58.37;95843.19;6373986;27;19923;-68
2022/06/28 02:09:47;;;;;;;;;;;;;;;16.48;58.27;95856.00;6373177;27;20014;-68
2022/06/28 02:12:48;;;;;;;;;;;;;;;16.45;58.93;95860.81;6372324;27;19927;-68
2022/06/28 02:15:52;;;;;;;;;;;;;;;16.48;58.50;95861.31;6372963;27;20030;-68
2022/06/28 02:18:57;;;;;;;;;;;;;;;16.59;58.07;95863.69;6373644;27;19924;-67
2022/06/28 02:22:03;;;;;;;;;;;;;;;16.68;58.08;95867.19;6373281;27;19923;-68
2022/06/28 02:25:05;;;;;;;;;;;;;;;16.86;57.38;95864.44;6372810;27;20339;-67
2022/06/28 02:28:09;;;;;;;;;;;;;;;16.91;57.35;95871.94;6373444;27;19924;-68
2022/06/28 02:31:13;;;;;;;;;;;;;;;17.08;56.92;95868.28;6372690;27;19942;-68
2022/06/28 02:40:21;;;;;;;;;;;;;;;17.18;56.52;95873.44;6372531;27;19923;-68
2022/06/28 02:40:57;;;;;;;;;;;;;;;17.28;56.78;95879.44;6372040;27;19923;-68
2022/06/28 02:44:00;;;;;;;;;;;;;;;17.83;55.24;95870.78;6373080;27;20404;-68
2022/06/28 02:47:04;;;;;;;;;;;;;;;18.02;54.64;95869.59;6372797;27;20400;-67
2022/06/28 02:50:05;;;;;;;;;;;;;;;17.89;55.15;95851.50;6372150;27;20389;-68
2022/06/28 02:53:08;;;;;;;;;;;;;;;17.67;55.48;95846.84;6372673;27;20022;-67
2022/06/28 02:56:09;;;;;;;;;;;;;;;17.72;55.57;95844.53;6371599;27;19984;-68
2022/06/28 02:59:13;;;;;;;;;;;;;;;18.01;55.33;95848.47;6372440;27;19923;-67
2022/06/28 03:02:16;;;;;;;;;;;;;;;18.28;54.94;95839.22;6372031;27;19923;-68
2022/06/28 03:05:18;;;;;;;;;;;;;;;18.29;54.94;95843.56;6370713;27;20392;-68
2022/06/28 03:08:21;;;;;;;;;;;;;;;18.20;55.36;95848.06;6371606;27;20400;-69
2022/06/28 03:11:22;;;;;;;;;;;;;;;18.24;55.55;95848.56;6371190;27;20006;-67
2022/06/28 03:14:23;;;;;;;;;;;;;;;18.07;55.90;95851.28;6371957;27;19923;-68
2022/06/28 03:17:27;;;;;;;;;;;;;;;18.05;56.13;95844.47;6371192;27;20376;-68
2022/06/28 03:20:28;;;;;;;;;;;;;;;18.11;56.02;95849.09;6371165;27;20015;-67
2022/06/28 03:23:29;;;;;;;;;;;;;;;18.13;55.74;95845.28;6371052;27;19923;-67
2022/06/28 03:26:30;;;;;;;;;;;;;;;18.25;55.25;95842.22;6371194;27;19923;-68
2022/06/28 03:29:31;;;;;;;;;;;;;;;18.22;55.13;95840.75;6371029;27;19935;-68
2022/06/28 03:32:32;;;;;;;;;;;;;;;18.16;55.30;95841.44;6370770;27;19923;-67
2022/06/28 03:35:34;;;;;;;;;;;;;;;18.13;55.58;95837.28;6371854;27;19923;-68
2022/06/28 03:38:37;;;;;;;;;;;;;;;18.12;55.26;95840.13;6370537;27;20012;-68
2022/06/28 03:41:43;;;;;;;;;;;;;;;18.10;54.86;95831.47;6371765;27;19924;-67
2022/06/28 03:44:47;;;;;;;;;;;;;;;18.18;54.79;95845.59;6371620;27;19927;-67
2022/06/28 03:47:48;;;;;;;;;;;;;;;18.38;53.72;95851.34;6370889;27;20319;-68
2022/06/28 03:50:52;;;;;;;;;;;;;;;18.37;53.50;95844.38;6371109;27;19923;-68
2022/06/28 03:53:53;;;;;;;;;;;;;;;18.37;53.13;95839.03;6370460;27;20022;-68
2022/06/28 03:56:57;;;;;;;;;;;;;;;18.33;53.34;95837.72;6371188;27;19923;-67
2022/06/28 04:00:03;;;;;;;;;;;;;;;18.58;52.97;95834.94;6371222;27;20006;-68
2022/06/28 04:03:07;;;;;;;;;;;;;;;18.52;53.20;95835.63;6371313;27;19927;-68
2022/06/28 04:06:09;;;;;;;;;;;;;;;18.70;52.58;95833.53;6370270;27;20307;-67
2022/06/28 04:09:19;;;;;;;;;;;;;;;18.71;51.90;95837.03;6370088;27;19926;-68
2022/06/28 04:12:25;;;;;;;;;;;;;;;18.60;51.80;95831.09;6370925;28;19923;-67
2022/06/28 04:15:26;;;;;;;;;;;;;;;18.55;51.92;95829.97;6367718;28;20019;-68
2022/06/28 04:18:29;;;;;;;;;;;;;;;18.58;52.00;95834.94;6370379;28;19923;-68
2022/06/28 04:21:31;;;;;;;;;;;;;;;18.69;51.69;95831.88;6369851;28;19923;-68
2022/06/28 04:24:34;;;;;;;;;;;;;;;18.68;51.83;95838.19;6372886;27;19923;-67
2022/06/28 04:27:38;;;;;;;;;;;;;;;18.85;51.23;95822.97;6375418;27;19925;-68
2022/06/28 04:30:41;;;;;;;;;;;;;;;18.98;50.42;95822.41;6376241;27;20388;-68
2022/06/28 04:33:45;;;;;;;;;;;;;;;18.97;50.56;95823.41;6375854;27;19923;-68
2022/06/28 04:36:48;;;;;;;;;;;;;;;19.23;49.70;95829.22;6375474;27;19934;-68
2022/06/28 04:39:52;;;;;;;;;;;;;;;19.42;49.30;95816.38;6375957;27;19923;-68
2022/06/28 04:43:02;;;;;;;;;;;;;;;19.83;48.51;95840.06;6375846;27;19923;-67
2022/06/28 04:46:03;;;;;;;;;;;;;;;20.40;46.60;95826.88;6374717;27;19923;-67
2022/06/28 04:49:04;;;;;;;;;;;;;;;21.62;44.47;95825.31;6374736;27;19930;-68
2022/06/28 04:52:08;;;;;;;;;;;;;;;24.50;38.62;95830.22;6375463;27;19924;-67
2022/06/28 04:55:13;;;;;;;;;;;;;;;27.05;34.52;95839.59;6375486;27;19923;-68
2022/06/28 04:58:14;;;;;;;;;;;;;;;29.23;30.15;95842.28;6375713;27;19971;-68
2022/06/28 05:01:21;;;;;;;;;;;;;;;31.21;26.89;95850.22;6375260;27;20296;-67
2022/06/28 05:04:22;;;;;;;;;;;;;;;33.36;24.76;95855.31;6374451;27;20388;-66
2022/06/28 05:07:23;;;;;;;;;;;;;;;35.65;22.89;95858.00;6374060;27;20079;-67
2022/06/28 05:10:24;;;;;;;;;;;;;;;37.23;20.32;95858.47;6374477;27;19953;-67
2022/06/28 05:13:27;;;;;;;;;;;;;;;38.80;18.99;95857.09;6375143;27;20119;-67
2022/06/28 05:16:33;;;;;;;;;;;;;;;40.53;18.43;95857.09;6357140;27;19923;-67
2022/06/28 05:19:36;;;;;;;;;;;;;;;41.47;17.19;95857.81;6374895;27;19923;-67
2022/06/28 05:22:37;;;;;;;;;;;;;;;39.45;18.40;95849.75;6374280;27;19923;-66
2022/06/28 05:25:39;;;;;;;;;;;;;;;40.53;16.65;95851.59;6374719;27;19923;-66
2022/06/28 05:28:46;;;;;;;;;;;;;;;41.89;15.16;95852.66;6374389;27;19923;-67
2022/06/28 05:31:49;;;;;;;;;;;;;;;37.85;17.91;95848.28;6374447;27;19923;-67
2022/06/28 05:34:50;;;;;;;;;;;;;;;33.06;21.10;95832.31;6372906;27;19946;-68
2022/06/28 05:37:54;;;;;;;;;;;;;;;33.20;21.55;95835.38;6373980;27;19919;-67
2022/06/28 05:40:55;;;;;;;;;;;;;;;36.30;18.81;95831.22;6373134;27;19924;-68
2022/06/28 05:43:57;;;;;;;;;;;;;;;39.45;16.22;95841.50;6373490;27;19930;-67
2022/06/28 05:46:58;;;;;;;;;;;;;;;41.92;14.93;95857.56;6373597;27;19923;-67
2022/06/28 05:50:01;;;;;;;;;;;;;;;41.82;14.51;95854.28;6374105;27;20006;-68
2022/06/28 05:53:04;;;;;;;;;;;;;;;39.49;15.60;95850.75;6374054;27;20007;-68
2022/06/28 05:56:05;;;;;;;;;;;;;;;38.48;16.39;95844.25;6374223;27;19923;-67
2022/06/28 05:59:11;;;;;;;;;;;;;;;40.52;14.62;95855.47;6374053;27;19924;-67
2022/06/28 06:02:12;;;;;;;;;;;;;;;41.11;14.19;95854.47;6373098;27;19923;-67
2022/06/28 06:05:16;;;;;;;;;;;;;;;42.54;13.13;95850.00;6372852;27;19923;-67
2022/06/28 06:08:22;;;;;;;;;;;;;;;44.71;11.57;95861.59;6373953;27;19929;-68
2022/06/28 06:11:27;;;;;;;;;;;;;;;41.09;12.78;95854.00;6373742;27;19923;-67
2022/06/28 06:14:30;;;;;;;;;;;;;;;36.37;16.33;95841.84;6372384;27;19923;-67
2022/06/28 06:17:35;;;;;;;;;;;;;;;36.20;16.86;95843.06;6373750;27;20360;-67
2022/06/28 06:20:41;;;;;;;;;;;;;;;34.51;18.24;95851.31;6373593;27;19920;-68
2022/06/28 06:23:45;;;;;;;;;;;;;;;31.77;21.18;95843.44;6373621;27;19931;-67
2022/06/28 06:26:49;;;;;;;;;;;;;;;29.96;22.97;95835.19;6373524;27;20389;-68
2022/06/28 06:29:50;;;;;;;;;;;;;;;30.34;23.10;95836.31;6372877;27;20468;-68
2022/06/28 06:32:51;;;;;;;;;;;;;;;31.65;21.51;95839.25;6373188;27;19929;-67
2022/06/28 06:35:54;;;;;;;;;;;;;;;31.14;21.56;95839.53;6373447;27;20022;-67
2022/06/28 06:39:00;;;;;;;;;;;;;;;29.72;23.23;95833.69;6373118;27;19968;-67
2022/06/28 06:42:04;;;;;;;;;;;;;;;28.49;24.53;95835.91;6373011;27;19924;-67
2022/06/28 06:45:08;;;;;;;;;;;;;;;29.01;24.11;95839.38;6372935;27;19931;-67
2022/06/28 06:48:12;;;;;;;;;;;;;;;31.23;21.77;95832.56;6371918;27;19924;-67
2022/06/28 06:51:13;;;;;;;;;;;;;;;32.53;20.42;95845.16;6372289;27;20419;-68
2022/06/28 06:54:16;;;;;;;;;;;;;;;31.26;21.76;95840.22;6372594;27;19923;-67
2022/06/28 06:57:17;;;;;;;;;;;;;;;29.66;23.45;95835.50;6371544;27;19930;-67
2022/06/28 07:00:19;;;;;;;;;;;;;;;29.36;23.61;95838.47;6371599;27;20465;-68
2022/06/28 07:03:22;;;;;;;;;;;;;;;28.74;24.52;95832.91;6372365;27;19923;-67
2022/06/28 07:06:23;;;;;;;;;;;;;;;32.78;20.17;95839.03;6372427;27;19931;-67
2022/06/28 07:09:24;;;;;;;;;;;;;;;35.53;17.30;95856.41;6371576;27;19923;-67
2022/06/28 07:12:27;;;;;;;;;;;;;;;34.17;18.49;95841.00;6372010;27;19923;-68
2022/06/28 07:15:28;;;;;;;;;;;;;;;36.80;17.01;95859.25;6371035;27;19942;-67
2022/06/28 07:18:36;;;;;;;;;;;;;;;40.07;14.12;95865.72;6371891;27;19923;-67
2022/06/28 07:21:37;;;;;;;;;;;;;;;40.40;13.67;95869.84;6371236;27;20349;-67
2022/06/28 07:24:39;;;;;;;;;;;;;;;39.38;14.01;95854.88;6371087;27;19987;-67
2022/06/28 07:27:40;;;;;;;;;;;;;;;39.24;13.97;95866.69;6371013;27;19923;-68
2022/06/28 07:30:44;;;;;;;;;;;;;;;40.08;13.29;95862.63;6372074;27;20030;-67
2022/06/28 07:33:45;;;;;;;;;;;;;;;40.60;12.88;95868.50;6371079;27;19931;-67
2022/06/28 07:36:46;;;;;;;;;;;;;;;42.19;11.62;95869.41;6370906;27;19923;-68
2022/06/28 07:39:47;;;;;;;;;;;;;;;43.27;11.20;95867.31;6371560;27;19928;-67
2022/06/28 07:42:48;;;;;;;;;;;;;;;43.45;10.59;95869.97;6371128;27;19923;-67
2022/06/28 07:45:54;;;;;;;;;;;;;;;44.17;10.34;95868.03;6371680;27;20304;-69
2022/06/28 07:48:58;;;;;;;;;;;;;;;41.82;10.75;95863.38;6371442;27;19923;-66
2022/06/28 07:55:23;;;;;;;;;;;;;;;37.15;13.96;95850.91;6371095;27;19923;-68
2022/06/28 07:58:26;;;;;;;;;;;;;;;34.84;15.04;95838.13;6371070;27;20017;-67
2022/06/28 08:01:30;;;;;;;;;;;;;;;32.87;16.37;95836.59;6371816;27;19923;-68
2022/06/28 08:04:36;;;;;;;;;;;;;;;31.93;17.27;95827.28;6371349;27;19919;-67
2022/06/28 08:07:40;;;;;;;;;;;;;;;32.63;16.80;95834.28;6370873;27;19923;-69
2022/06/28 08:10:43;;;;;;;;;;;;;;;34.13;15.58;95834.44;6370328;27;19931;-68
2022/06/28 08:13:48;;;;;;;;;;;;;;;34.42;15.38;95837.41;6370336;28;19924;-67
2022/06/28 08:16:53;;;;;;;;;;;;;;;37.05;13.59;95844.41;6371174;28;20308;-67
2022/06/28 08:19:58;;;;;;;;;;;;;;;38.66;12.38;95842.53;6371199;28;19919;-67
2022/06/28 08:22:59;;;;;;;;;;;;;;;39.04;11.69;95845.94;6370435;28;19930;-68
2022/06/28 08:26:02;;;;;;;;;;;;;;;38.92;11.50;95842.06;6369881;28;20067;-67
2022/06/28 08:29:05;;;;;;;;;;;;;;;39.26;11.18;95841.59;6370545;28;19923;-67
2022/06/28 08:32:08;;;;;;;;;;;;;;;39.94;10.66;95856.38;6370821;28;19924;-67
2022/06/28 08:35:09;;;;;;;;;;;;;;;40.09;10.30;95846.94;6370435;28;19923;-68
2022/06/28 08:38:11;;;;;;;;;;;;;;;40.22;10.59;95851.56;6369942;28;20376;-68
2022/06/28 08:41:14;;;;;;;;;;;;;;;41.81;9.66;95853.47;6370121;28;19923;-67
2022/06/28 08:44:18;;;;;;;;;;;;;;;42.20;8.97;95846.16;6370352;28;19930;-67
2022/06/28 08:47:24;;;;;;;;;;;;;;;42.14;8.92;95853.78;6370708;28;19923;-67
2022/06/28 08:50:28;;;;;;;;;;;;;;;42.15;9.01;95854.59;6370790;28;19931;-68
2022/06/28 08:53:33;;;;;;;;;;;;;;;42.55;9.20;95854.38;6370574;28;19923;-67
2022/06/28 08:56:38;;;;;;;;;;;;;;;42.32;8.71;95856.56;6370441;28;20338;-68
2022/06/28 08:59:46;;;;;;;;;;;;;;;42.87;8.98;95864.09;6370263;28;19923;-67
2022/06/28 09:02:47;;;;;;;;;;;;;;;44.11;8.23;95859.09;6370198;28;19927;-67
2022/06/28 09:05:52;;;;;;;;;;;;;;;44.80;7.35;95867.88;6370581;28;19924;-67
2022/06/28 09:08:53;;;;;;;;;;;;;;;44.64;6.87;95861.34;6370493;27;19924;-66
2022/06/28 09:11:55;;;;;;;;;;;;;;;45.06;7.46;95866.75;6374018;27;20018;-67
2022/06/28 09:15:04;;;;;;;;;;;;;;;44.24;7.22;95861.91;6375132;27;20063;-67
2022/06/28 09:18:05;;;;;;;;;;;;;;;43.83;8.02;95861.59;6375301;27;20404;-67
2022/06/28 09:21:15;;;;;;;;;;;;;;;44.66;7.41;95859.06;6374987;27;19923;-66
2022/06/28 09:24:25;;;;;;;;;;;;;;;44.32;7.39;95847.97;6374672;27;19929;-67
2022/06/28 09:27:30;;;;;;;;;;;;;;;43.23;7.52;95832.31;6374716;27;20300;-67
2022/06/28 09:30:31;;;;;;;;;;;;;;;42.10;8.34;95849.28;6355727;27;20411;-67
2022/06/28 09:33:36;;;;;;;;;;;;;;;41.63;8.75;95852.66;6374387;27;19924;-67
2022/06/28 09:36:55;;;;;;;;;;;;;;;41.56;9.16;95848.72;6374722;27;19923;-68
2022/06/28 09:40:08;;;;;;;;;;;;;;;42.15;8.39;95843.56;6373298;27;20410;-68
2022/06/28 09:43:13;;;;;;;;;;;;;;;40.61;8.90;95847.25;6374307;27;20439;-67
2022/06/28 09:46:16;;;;;;;;;;;;;;;39.15;9.78;95843.75;6374070;27;20010;-67
2022/06/28 09:49:20;;;;;;;;;;;;;;;35.89;12.04;95841.69;6374270;27;19923;-67
2022/06/28 09:52:27;;;;;;;;;;;;;;;35.26;12.27;95834.13;6374153;27;19930;-67
2022/06/28 09:55:30;;;;;;;;;;;;;;;35.00;12.71;95836.16;6373329;27;19923;-67
2022/06/28 09:58:33;;;;;;;;;;;;;;;34.69;12.89;95830.81;6373859;27;19976;-67
2022/06/28 10:01:37;;;;;;;;;;;;;;;35.96;12.29;95840.25;6373773;27;19923;-67
2022/06/28 10:04:42;;;;;;;;;;;;;;;37.10;11.21;95849.03;6354530;27;19953;-67
2022/06/28 10:07:46;;;;;;;;;;;;;;;37.71;11.16;95856.44;6373493;27;19923;-67
2022/06/28 10:10:52;;;;;;;;;;;;;;;36.22;12.18;95856.50;6355662;27;19923;-68
2022/06/28 10:17:40;;;;;;;;;;;;;;;30.69;16.31;95837.88;6372733;27;19923;-68
2022/06/28 10:20:46;;;;;;;;;;;;;;;28.93;17.65;95847.06;6346076;27;19923;-68
2022/06/28 10:23:49;;;;;;;;;;;;;;;27.92;18.11;95839.16;6372480;27;20311;-68
2022/06/28 10:27:11;;;;;;;;;;;;;;;28.02;18.01;95833.97;6355093;27;20023;-67
2022/06/28 10:30:22;;;;;;;;;;;;;;;28.30;18.50;95843.28;6373370;27;19945;-68
2022/06/28 10:33:39;;;;;;;;;;;;;;;28.28;18.63;95839.97;6371959;27;20369;-67
2022/06/28 10:36:43;;;;;;;;;;;;;;;28.34;18.63;95847.19;6372112;27;19924;-69
2022/06/28 10:39:45;;;;;;;;;;;;;;;28.41;18.84;95854.09;6371922;27;19946;-67
2022/06/28 10:42:53;;;;;;;;;;;;;;;28.32;18.86;95852.81;6373064;27;20061;-67
2022/06/28 10:46:00;;;;;;;;;;;;;;;28.77;18.47;95854.06;6372932;27;19934;-68
2022/06/28 10:49:06;;;;;;;;;;;;;;;30.01;17.86;95858.88;6372584;27;19923;-67
2022/06/28 10:52:10;;;;;;;;;;;;;;;30.96;16.77;95861.59;6371243;27;19927;-67
2022/06/28 10:55:11;;;;;;;;;;;;;;;31.08;16.67;95871.28;6372476;27;19924;-67
2022/06/28 10:58:12;;;;;;;;;;;;;;;30.24;17.19;95874.16;6372618;27;20395;-67
2022/06/28 11:01:13;;;;;;;;;;;;;;;29.32;18.22;95878.75;6372147;27;19931;-68
2022/06/28 11:04:21;;;;;;;;;;;;;;;28.11;19.00;95880.44;6372087;27;19924;-68
2022/06/28 11:07:25;;;;;;;;;;;;;;;26.97;19.95;95883.91;6354348;27;19924;-68
2022/06/28 11:10:29;;;;;;;;;;;;;;;25.94;20.90;95879.97;6371622;27;19924;-68
2022/06/28 11:13:34;;;;;;;;;;;;;;;25.77;21.17;95878.84;6353986;27;19927;-68
2022/06/28 11:16:46;;;;;;;;;;;;;;;25.48;21.45;95875.72;6371171;27;20349;-67
2022/06/28 11:19:52;;;;;;;;;;;;;;;25.09;21.33;95888.34;6371705;27;20332;-68
2022/06/28 11:22:56;;;;;;;;;;;;;;;24.57;22.05;95884.81;6371079;27;20178;-67
2022/06/28 11:29:32;;;;;;;;;;;;;;;24.13;22.52;95875.56;6370796;27;20193;-67
2022/06/28 11:32:37;;;;;;;;;;;;;;;23.96;22.98;95879.72;6370715;27;19923;-67
2022/06/28 11:35:41;;;;;;;;;;;;;;;23.56;23.22;95871.63;6371454;27;19923;-68
2022/06/28 11:38:47;;;;;;;;;;;;;;;23.15;23.85;95877.94;6371228;27;19923;-67
2022/06/28 11:41:55;;;;;;;;;;;;;;;22.90;24.29;95883.00;6352611;27;20071;-68
2022/06/28 11:45:00;;;;;;;;;;;;;;;22.41;24.67;95884.81;6371126;27;19930;-68
2022/06/28 11:48:05;;;;;;;;;;;;;;;21.91;25.25;95878.69;6352863;27;19928;-68
2022/06/28 11:51:07;;;;;;;;;;;;;;;21.97;25.05;95875.22;6370916;27;19923;-69
2022/06/28 11:54:09;;;;;;;;;;;;;;;22.47;23.95;95895.78;6371211;27;20410;-68
2022/06/28 11:57:16;;;;;;;;;;;;;;;22.29;24.00;95891.75;6373164;27;19953;-68
2022/06/28 12:00:24;;;;;;;;;;;;;;;22.11;24.51;95892.22;6371722;27;20300;-68
2022/06/28 12:03:25;;;;;;;;;;;;;;;22.03;24.88;95892.38;6371585;27;20029;-68
2022/06/28 12:06:30;;;;;;;;;;;;;;;21.88;24.71;95899.66;6353892;27;19923;-67
2022/06/28 12:09:32;;;;;;;;;;;;;;;21.66;24.73;95890.84;6370540;27;20003;-66
2022/06/28 12:12:39;;;;;;;;;;;;;;;21.63;24.53;95901.94;6371197;27;20019;-68
2022/06/28 12:15:46;;;;;;;;;;;;;;;21.41;24.66;95904.59;6371386;28;19923;-67
2022/06/28 12:18:50;;;;;;;;;;;;;;;21.49;24.51;95896.44;6371935;28;20418;-67
2022/06/28 12:22:04;;;;;;;;;;;;;;;21.72;24.45;95903.47;6336657;28;19989;-68
2022/06/28 12:25:15;;;;;;;;;;;;;;;21.43;24.94;95899.91;6370898;28;19923;-69
2022/06/28 12:28:18;;;;;;;;;;;;;;;21.39;25.03;95906.63;6371528;28;19930;-68
2022/06/28 12:31:21;;;;;;;;;;;;;;;21.02;25.45;95908.47;6371612;28;19981;-67
2022/06/28 12:34:25;;;;;;;;;;;;;;;20.85;25.91;95915.06;6369822;28;19961;-68
2022/06/28 12:37:29;;;;;;;;;;;;;;;20.70;26.21;95914.25;6370941;28;19985;-69
2022/06/28 12:40:33;;;;;;;;;;;;;;;20.71;26.17;95921.25;6370685;28;19923;-69
2022/06/28 12:43:36;;;;;;;;;;;;;;;20.18;26.80;95919.47;6370716;27;19919;-68
2022/06/28 12:46:40;;;;;;;;;;;;;;;20.04;27.29;95930.97;6374411;27;19929;-67
2022/06/28 12:49:43;;;;;;;;;;;;;;;20.01;26.15;95933.97;6358404;27;19946;-68
2022/06/28 12:52:48;;;;;;;;;;;;;;;19.81;26.11;95935.50;6376032;27;19948;-68
2022/06/28 12:55:50;;;;;;;;;;;;;;;19.81;26.15;95938.16;6375082;27;19930;-67
2022/06/28 12:58:52;;;;;;;;;;;;;;;19.95;25.98;95942.72;6375417;27;19923;-68
2022/06/28 13:01:56;;;;;;;;;;;;;;;19.46;26.78;95941.22;6375602;27;19930;-69
2022/06/28 13:04:59;;;;;;;;;;;;;;;19.45;27.00;95938.75;6339995;27;19928;-67
2022/06/28 13:08:03;;;;;;;;;;;;;;;19.33;27.00;95942.81;6375241;27;19923;-68
2022/06/28 13:11:07;;;;;;;;;;;;;;;19.31;26.73;95942.19;6375467;27;19928;-67
2022/06/28 13:14:09;;;;;;;;;;;;;;;19.39;26.30;95944.78;6373494;27;20024;-69
2022/06/28 13:17:10;;;;;;;;;;;;;;;19.38;26.18;95951.97;6374830;27;19923;-69
2022/06/28 13:20:14;;;;;;;;;;;;;;;19.52;26.13;95945.03;6374057;27;20312;-68
2022/06/28 13:23:15;;;;;;;;;;;;;;;19.37;26.96;95944.16;6374890;27;19925;-68
2022/06/28 13:26:17;;;;;;;;;;;;;;;19.18;27.21;95954.25;6374669;27;19923;-68
2022/06/28 13:29:22;;;;;;;;;;;;;;;18.84;27.25;95952.75;6374952;27;20408;-69
2022/06/28 13:32:25;;;;;;;;;;;;;;;18.60;27.50;95942.16;6374372;27;19990;-68
2022/06/28 13:35:26;;;;;;;;;;;;;;;18.44;27.58;95968.84;6373651;27;19923;-67
2022/06/28 13:38:28;;;;;;;;;;;;;;;18.23;28.05;95954.25;6374590;27;19927;-68
2022/06/28 13:41:33;;;;;;;;;;;;;;;17.79;28.63;95967.94;6373683;27;19924;-67
2022/06/28 13:44:41;;;;;;;;;;;;;;;18.12;28.21;95974.06;6374440;27;19988;-68
2022/06/28 13:47:45;;;;;;;;;;;;;;;17.98;27.35;95971.25;6374188;27;19924;-67
2022/06/28 13:50:51;;;;;;;;;;;;;;;17.74;28.11;95962.22;6374094;27;19923;-68
2022/06/28 13:53:55;;;;;;;;;;;;;;;17.72;28.43;95972.22;6373200;27;19923;-67
2022/06/28 13:56:56;;;;;;;;;;;;;;;18.32;26.63;95979.88;6374106;27;20344;-67
2022/06/28 14:00:00;;;;;;;;;;;;;;;18.29;26.10;95980.22;6374307;27;20014;-69
2022/06/28 14:03:01;;;;;;;;;;;;;;;18.25;25.83;95981.53;6374949;27;19923;-68
2022/06/28 14:06:05;;;;;;;;;;;;;;;18.43;25.95;95980.50;6375752;27;19923;-68
2022/06/28 14:09:06;;;;;;;;;;;;;;;18.62;25.74;95988.09;6373578;27;19930;-68
2022/06/28 14:12:08;;;;;;;;;;;;;;;18.76;25.91;95991.94;6374236;27;20434;-68
2022/06/28 14:15:09;;;;;;;;;;;;;;;18.70;25.93;95988.09;6373183;27;20370;-69
2022/06/28 14:18:12;;;;;;;;;;;;;;;18.81;26.18;96001.06;6375525;27;20304;-68
2022/06/28 14:21:13;;;;;;;;;;;;;;;19.07;26.15;95999.97;6372957;27;20308;-68
2022/06/28 14:24:14;;;;;;;;;;;;;;;18.80;26.72;96019.91;6372382;27;19946;-68
2022/06/28 14:27:18;;;;;;;;;;;;;;;18.57;26.97;96014.41;6374651;27;20316;-69
2022/06/28 14:30:22;;;;;;;;;;;;;;;18.31;27.57;96025.28;6373840;27;19923;-68
2022/06/28 14:33:23;;;;;;;;;;;;;;;18.34;27.45;96024.94;6373062;27;19924;-68
2022/06/28 14:36:26;;;;;;;;;;;;;;;18.18;27.83;96031.16;6373345;27;19923;-68
2022/06/28 14:39:27;;;;;;;;;;;;;;;17.64;28.29;96028.09;6372515;27;19923;-68
2022/06/28 14:42:28;;;;;;;;;;;;;;;17.31;28.83;96033.31;6372373;27;19929;-67
2022/06/28 14:45:33;;;;;;;;;;;;;;;17.18;28.92;96027.63;6373453;27;20441;-70
2022/06/28 14:48:34;;;;;;;;;;;;;;;17.08;29.46;96040.22;6371468;27;19923;-69
2022/06/28 14:51:37;;;;;;;;;;;;;;;16.83;30.62;96053.41;6371943;27;19924;-69
2022/06/28 14:54:41;;;;;;;;;;;;;;;16.84;31.82;96052.38;6371940;27;20029;-70
2022/06/28 14:57:45;;;;;;;;;;;;;;;16.69;32.49;96048.63;6373849;27;19929;-67
2022/06/28 15:00:49;;;;;;;;;;;;;;;16.44;33.63;96056.44;6372785;27;19923;-67
2022/06/28 15:03:52;;;;;;;;;;;;;;;16.22;34.41;96062.25;6372950;27;19923;-69
2022/06/28 15:06:57;;;;;;;;;;;;;;;16.03;34.48;96068.59;6372410;27;20465;-69
2022/06/28 15:10:04;;;;;;;;;;;;;;;15.95;34.38;96072.00;6372352;27;19920;-69
2022/06/28 15:13:07;;;;;;;;;;;;;;;15.90;33.99;96074.25;6373167;27;19931;-68
2022/06/28 15:16:11;;;;;;;;;;;;;;;15.58;34.00;96077.41;6372610;27;19923;-68
2022/06/28 15:19:15;;;;;;;;;;;;;;;15.37;34.27;96081.19;6371694;27;19931;-68
2022/06/28 15:32:20;;;;;;;;;;;;;;;14.84;35.79;96091.59;6371335;27;19930;-69
2022/06/28 15:35:21;;;;;;;;;;;;;;;14.70;36.73;96100.84;6370609;27;20017;-69
2022/06/28 15:38:23;;;;;;;;;;;;;;;14.43;37.59;96110.31;6370536;27;19968;-68
2022/06/28 15:41:26;;;;;;;;;;;;;;;14.59;37.08;96113.25;6372036;27;19923;-69
2022/06/28 15:44:30;;;;;;;;;;;;;;;14.33;37.01;96128.06;6371695;27;20308;-68
2022/06/28 15:47:33;;;;;;;;;;;;;;;13.96;37.60;96133.22;6371817;27;19923;-68
2022/06/28 15:50:40;;;;;;;;;;;;;;;13.70;37.90;96139.00;6371665;27;19959;-69
2022/06/28 15:53:46;;;;;;;;;;;;;;;13.47;38.13;96144.56;6371831;27;19930;-68
2022/06/28 15:56:47;;;;;;;;;;;;;;;13.25;38.55;96144.72;6370914;27;19923;-68
2022/06/28 15:59:50;;;;;;;;;;;;;;;13.23;38.52;96151.94;6371721;27;19919;-69
2022/06/28 16:02:53;;;;;;;;;;;;;;;13.02;38.78;96160.75;6371120;27;19923;-68
2022/06/28 16:05:54;;;;;;;;;;;;;;;12.89;39.28;96156.66;6371531;27;20395;-69
2022/06/28 16:08:58;;;;;;;;;;;;;;;12.71;39.63;96161.69;6371252;27;20025;-69
2022/06/28 16:15:27;;;;;;;;;;;;;;;12.28;41.02;96170.56;6370053;27;19938;-68
2022/06/28 16:18:32;;;;;;;;;;;;;;;12.17;41.27;96182.00;6371802;27;20014;-68
2022/06/28 16:21:38;;;;;;;;;;;;;;;12.15;42.16;96198.94;6379719;27;19923;-69
2022/06/28 16:24:41;;;;;;;;;;;;;;;12.02;42.60;96192.00;6378895;27;19931;-69